logo

United by the hobby
of model aircraft flying

Promoting safe
radio model flying

Sharing the experience
of RC flying

Dedicated to the sport of model aviation

Meeting
Venue

Third Monday Each Month
Crown Point Civic Center
101 S East Street
Crown Point, IN 46307

Read More

email:
[javascript protected email address]

View our events calendar

2022

Weather Conditions

Elev 730 ft    41.19°N  87.16°W

55.0 °F
260°
7 m/h
Wind Variable Wind from West

Current Conditions

Pressure 29.79 in
Visibility 10 miles
Clouds Mostly
Dew Point 50.0 °F
Humidity 83 %
Rainfall T1.8 in
 
METAR KVPZ 260156Z AUTO 26006KT 10SM FEW090 13/10 A2979 RMK AO2 SLP087 T01280100

Forecast

INFORMATION PROVIDED BY THE INDIANA STATE FORECAST - NATIONAL WEATHER SERVICE
Sunrise & Sunset
September 26, 2022
4:3 AM

4:37 PM
High 72 | Low 53°F
September 27, 2022
4:3 AM

4:37 PM
High | Low °F
 

our gallery

View All